Time;durP1;ratioP1;P1;durP2;ratioP2;P2;SDS_P1;SDS_P2;PMS_P1;PMS_P2;Temp;Humidity;BMP_temperature;BMP_pressure;BME280_temperature;BME280_humidity;BME280_pressure;Samples;Min_cycle;Max_cycle;Signal;HPM_P1;HPM_P2
2023/04/20 00:01:46;;;;;;;33.70;24.98;;;;;;;6.83;93.48;99957.50;5052315;28;20029;-80
2023/04/20 00:04:14;;;;;;;41.90;31.55;;;;;;;6.92;92.60;99977.13;5052020;28;20029;-80
2023/04/20 00:06:41;;;;;;;39.38;29.88;;;;;;;6.85;92.18;99978.16;5052143;28;20033;-80
2023/04/20 00:09:07;;;;;;;33.90;25.73;;;;;;;6.71;92.25;99950.06;5051896;28;20024;-80
2023/04/20 00:11:32;;;;;;;31.15;24.23;;;;;;;6.89;92.35;99977.19;5051919;28;20029;-80
2023/04/20 00:13:58;;;;;;;30.42;22.50;;;;;;;6.92;92.68;99974.53;5051902;28;20112;-80
2023/04/20 00:16:23;;;;;;;29.00;24.60;;;;;;;6.85;92.38;99949.69;5051571;28;20036;-80
2023/04/20 00:18:49;;;;;;;30.17;24.05;;;;;;;7.00;92.32;99968.25;5051998;28;20078;-80
2023/04/20 00:21:14;;;;;;;31.77;24.77;;;;;;;6.89;91.80;99949.56;5051663;28;20086;-80
2023/04/20 00:23:41;;;;;;;33.70;25.75;;;;;;;6.94;91.92;99958.06;5051860;28;20021;-80
2023/04/20 00:26:06;;;;;;;30.50;24.80;;;;;;;6.90;91.72;99948.66;5051665;28;20465;-80
2023/04/20 00:28:32;;;;;;;33.97;26.27;;;;;;;6.96;91.60;99960.63;5051626;28;20032;-80
2023/04/20 00:30:57;;;;;;;29.50;24.70;;;;;;;6.92;91.83;99959.84;5051679;28;20041;-81
2023/04/20 00:33:23;;;;;;;32.30;25.17;;;;;;;6.69;91.83;99944.91;5051702;28;20361;-80
2023/04/20 00:35:48;;;;;;;29.48;24.52;;;;;;;6.79;91.92;99974.00;5051712;28;20099;-80
2023/04/20 00:38:13;;;;;;;33.60;26.50;;;;;;;6.76;92.25;99958.56;5050065;28;20025;-80
2023/04/20 00:40:42;;;;;;;33.95;27.02;;;;;;;6.80;92.18;99973.13;5051484;28;20108;-80
2023/04/20 00:43:11;;;;;;;36.92;29.52;;;;;;;6.62;92.99;99958.91;5052037;28;20465;-80
2023/04/20 00:45:37;;;;;;;39.05;30.50;;;;;;;6.73;93.22;99974.16;5054851;28;20029;-80
2023/04/20 00:48:03;;;;;;;49.17;34.97;;;;;;;6.66;93.73;99980.41;5055765;28;20400;-80
2023/04/20 00:50:29;;;;;;;46.05;33.47;;;;;;;6.57;94.07;99962.50;5055517;28;20465;-80
2023/04/20 00:52:54;;;;;;;46.53;34.63;;;;;;;6.67;94.02;99972.59;5055562;28;20025;-80
2023/04/20 00:55:20;;;;;;;53.20;36.53;;;;;;;6.48;94.94;99943.72;5055547;28;20074;-80
2023/04/20 00:57:45;;;;;;;40.95;32.83;;;;;;;6.55;95.00;99965.13;5055739;28;20028;-80
2023/04/20 01:00:11;;;;;;;38.38;30.88;;;;;;;6.54;94.89;99950.50;5055501;28;20082;-80
2023/04/20 01:02:36;;;;;;;41.70;30.90;;;;;;;6.59;94.82;99966.75;5055459;28;20025;-80
2023/04/20 01:05:02;;;;;;;41.20;31.00;;;;;;;6.52;95.24;99967.78;5055420;28;20037;-80
2023/04/20 01:07:28;;;;;;;36.70;30.70;;;;;;;6.56;94.97;99965.97;5055172;28;20027;-80
2023/04/20 01:09:54;;;;;;;36.38;30.00;;;;;;;6.34;94.59;99929.44;5055305;28;20036;-80
2023/04/20 01:12:19;;;;;;;39.28;28.92;;;;;;;6.49;94.91;99947.19;5055136;28;20604;-80
2023/04/20 01:14:45;;;;;;;38.83;30.65;;;;;;;6.62;94.21;99955.47;5055440;28;20040;-80
2023/04/20 01:17:10;;;;;;;36.47;28.58;;;;;;;6.47;93.83;99936.00;5055315;28;20029;-80
2023/04/20 01:19:35;;;;;;;38.35;28.65;;;;;;;6.63;93.86;99976.13;5055050;28;20380;-80
2023/04/20 01:22:01;;;;;;;38.15;30.08;;;;;;;6.52;94.09;99972.97;5055183;28;20021;-80
2023/04/20 01:24:26;;;;;;;38.83;30.25;;;;;;;6.35;94.30;99939.75;5054798;28;20021;-80
2023/04/20 01:26:52;;;;;;;42.15;32.05;;;;;;;6.56;94.46;99973.72;5055062;28;20113;-80
2023/04/20 01:29:17;;;;;;;38.42;29.90;;;;;;;6.46;94.45;99953.28;5054793;28;20587;-80
2023/04/20 01:31:42;;;;;;;43.70;34.72;;;;;;;6.57;94.84;99963.34;5054816;28;20125;-80
2023/04/20 01:34:08;;;;;;;44.63;32.88;;;;;;;6.27;94.60;99925.28;5055012;28;20032;-80
2023/04/20 01:36:33;;;;;;;42.50;32.78;;;;;;;6.23;95.57;99933.13;5054582;28;20469;-80
2023/04/20 01:39:00;;;;;;;39.80;31.65;;;;;;;6.21;96.67;99949.59;5054998;28;20036;-80
2023/04/20 01:41:25;;;;;;;46.20;35.05;;;;;;;6.02;96.57;99897.44;5054442;28;20423;-80
2023/04/20 01:43:51;;;;;;;45.15;33.35;;;;;;;6.34;96.66;99937.19;5054870;28;20053;-80
2023/04/20 01:46:16;;;;;;;41.92;31.50;;;;;;;6.36;96.19;99933.69;5054802;28;20063;-80
2023/04/20 01:48:42;;;;;;;35.15;28.48;;;;;;;6.32;94.68;99913.97;5054570;28;20025;-80
2023/04/20 01:51:08;;;;;;;36.78;28.40;;;;;;;6.32;94.18;99921.72;5054699;28;20376;-80
2023/04/20 01:53:33;;;;;;;34.25;27.40;;;;;;;6.36;94.26;99957.00;5054381;28;20904;-80
2023/04/20 01:55:59;;;;;;;34.85;28.02;;;;;;;6.44;94.30;99954.19;5053338;28;20053;-80
2023/04/20 01:58:24;;;;;;;37.05;31.00;;;;;;;6.38;94.38;99950.03;5054388;28;20029;-80
2023/04/20 02:00:50;;;;;;;44.38;34.70;;;;;;;6.44;94.79;99955.03;5054477;28;20384;-80
2023/04/20 02:03:15;;;;;;;53.30;37.05;;;;;;;6.42;94.88;99950.78;5054241;28;20519;-80
2023/04/20 02:05:41;;;;;;;48.00;36.35;;;;;;;6.44;94.87;99951.59;5054364;28;20039;-80
2023/04/20 02:08:06;;;;;;;50.13;35.90;;;;;;;6.48;95.37;99955.81;5054180;28;20021;-80
2023/04/20 02:10:32;;;;;;;51.88;36.65;;;;;;;6.16;95.51;99920.41;5053955;28;20057;-80
2023/04/20 02:12:57;;;;;;;54.15;38.28;;;;;;;6.09;95.91;99918.84;5054294;28;20029;-80
2023/04/20 02:15:22;;;;;;;44.10;35.22;;;;;;;6.17;97.05;99938.47;5054309;28;20384;-80
2023/04/20 02:17:51;;;;;;;47.17;35.75;;;;;;;6.28;97.31;99934.75;5054063;28;20472;-80
2023/04/20 02:20:18;;;;;;;48.45;37.38;;;;;;;6.38;96.83;99942.25;5053833;28;20025;-80
2023/04/20 02:22:44;;;;;;;55.75;39.45;;;;;;;6.10;97.46;99917.94;5054041;28;20477;-80
2023/04/20 02:25:09;;;;;;;52.42;38.05;;;;;;;6.20;98.11;99929.78;5053919;28;20027;-80
2023/04/20 02:27:35;;;;;;;49.90;38.78;;;;;;;5.85;99.17;99904.72;5054009;28;20472;-80
2023/04/20 02:30:00;;;;;;;58.85;43.05;;;;;;;6.09;99.82;99922.28;5053971;28;20377;-80
2023/04/20 02:32:26;;;;;;;56.25;41.65;;;;;;;6.02;99.73;99904.34;5053497;28;20072;-80
2023/04/20 02:34:52;;;;;;;57.78;41.97;;;;;;;6.05;99.58;99910.31;5053857;28;20033;-80
2023/04/20 02:37:17;;;;;;;58.50;39.03;;;;;;;5.78;99.43;99913.53;5053340;28;20025;-80
2023/04/20 02:39:42;;;;;;;55.33;40.78;;;;;;;5.92;99.97;99908.91;5053594;28;20024;-80
2023/04/20 02:42:08;;;;;;;52.95;39.35;;;;;;;5.95;99.52;99916.59;5053790;28;20050;-80
2023/04/20 02:44:33;;;;;;;51.05;39.35;;;;;;;5.91;99.27;99907.16;5053383;28;20017;-80
2023/04/20 02:46:58;;;;;;;52.28;39.10;;;;;;;5.86;100.00;99904.69;5053662;28;20029;-80
2023/04/20 02:49:23;;;;;;;58.38;39.70;;;;;;;5.95;100.00;99901.94;5053369;28;20029;-80
2023/04/20 02:51:49;;;;;;;51.33;39.58;;;;;;;5.90;100.00;99901.16;5053414;28;20029;-80
2023/04/20 02:54:15;;;;;;;57.63;41.03;;;;;;;5.99;100.00;99908.72;5053619;28;20031;-80
2023/04/20 02:56:41;;;;;;;50.58;40.42;;;;;;;6.04;100.00;99916.38;5053314;28;20028;-80
2023/04/20 02:59:06;;;;;;;52.90;40.10;;;;;;;6.06;99.84;99921.50;5053414;28;20381;-80
2023/04/20 03:01:31;;;;;;;50.30;39.05;;;;;;;5.95;99.48;99898.50;5053059;28;20028;-80
2023/04/20 03:03:57;;;;;;;51.33;38.25;;;;;;;6.02;98.64;99902.59;5053508;28;20056;-80
2023/04/20 03:06:22;;;;;;;48.53;37.05;;;;;;;6.19;98.56;99922.88;5052953;28;20029;-80
2023/04/20 03:08:47;;;;;;;49.13;37.17;;;;;;;6.20;98.26;99904.78;5052795;28;20028;-81
2023/04/20 03:11:13;;;;;;;47.58;37.17;;;;;;;6.37;97.47;99919.03;5053263;28;20116;-80
2023/04/20 03:13:38;;;;;;;52.13;38.28;;;;;;;6.27;97.56;99899.44;5053236;28;20087;-80
2023/04/20 03:16:04;;;;;;;49.90;38.55;;;;;;;6.32;97.05;99897.56;5053091;28;20032;-80
2023/04/20 03:18:30;;;;;;;50.42;38.20;;;;;;;6.46;96.87;99926.53;5052771;28;20021;-80
2023/04/20 03:20:55;;;;;;;50.25;37.53;;;;;;;6.41;96.92;99913.72;5052876;28;20059;-80
2023/04/20 03:23:21;;;;;;;48.53;35.63;;;;;;;6.49;96.91;99923.88;5052509;28;20025;-80
2023/04/20 03:25:46;;;;;;;48.25;37.30;;;;;;;6.37;97.00;99906.94;5052957;28;20025;-80
2023/04/20 03:28:12;;;;;;;55.08;39.20;;;;;;;6.62;96.63;99942.53;5052908;28;20029;-80
2023/04/20 03:30:37;;;;;;;50.65;36.80;;;;;;;6.53;96.25;99925.50;5052798;28;20020;-80
2023/04/20 03:33:02;;;;;;;44.17;34.45;;;;;;;6.63;96.13;99939.06;5051458;28;20025;-80
2023/04/20 03:35:28;;;;;;;40.50;32.85;;;;;;;6.52;95.77;99938.47;5052490;28;20032;-80
2023/04/20 03:37:53;;;;;;;41.97;31.85;;;;;;;6.34;95.67;99942.38;5052437;28;20033;-80
2023/04/20 03:40:18;;;;;;;43.97;34.47;;;;;;;6.11;96.60;99907.59;5052298;28;20082;-80
2023/04/20 03:42:44;;;;;;;44.80;35.05;;;;;;;6.29;96.70;99933.88;5052335;28;20053;-80
2023/04/20 03:45:10;;;;;;;42.03;33.95;;;;;;;6.38;96.74;99941.41;5052707;28;20029;-80
2023/04/20 03:47:35;;;;;;;44.35;34.60;;;;;;;6.24;96.93;99915.91;5052238;28;20021;-80
2023/04/20 03:50:01;;;;;;;44.13;36.33;;;;;;;6.41;96.41;99936.16;5052461;28;20497;-80
2023/04/20 03:52:26;;;;;;;43.22;34.05;;;;;;;6.22;96.07;99909.91;5050799;28;20036;-80
2023/04/20 03:54:52;;;;;;;45.55;33.65;;;;;;;6.38;96.09;99929.31;5052581;28;20028;-80
2023/04/20 03:57:17;;;;;;;45.05;35.17;;;;;;;6.44;96.24;99930.91;5052437;28;20051;-80
2023/04/20 03:59:42;;;;;;;47.45;34.45;;;;;;;6.38;96.13;99925.88;5052175;28;20124;-80
2023/04/20 04:02:09;;;;;;;45.00;35.20;;;;;;;6.34;96.49;99908.75;5052438;28;20078;-81
2023/04/20 04:04:35;;;;;;;47.55;36.30;;;;;;;6.49;96.68;99944.59;5051941;28;20032;-80
2023/04/20 04:07:00;;;;;;;48.15;36.92;;;;;;;6.52;96.70;99949.66;5052123;28;20017;-80
2023/04/20 04:09:26;;;;;;;47.47;36.35;;;;;;;6.37;96.59;99922.47;5052070;28;20457;-80
2023/04/20 04:11:51;;;;;;;50.97;37.60;;;;;;;6.30;97.04;99926.06;5052608;28;20112;-80
2023/04/20 04:14:16;;;;;;;47.80;37.85;;;;;;;6.31;97.85;99935.53;5052169;28;20380;-81
2023/04/20 04:16:42;;;;;;;48.22;38.58;;;;;;;6.43;98.01;99950.75;5051905;28;20037;-80
2023/04/20 04:19:07;;;;;;;53.55;39.95;;;;;;;6.31;98.05;99927.75;5051391;28;20081;-80
2023/04/20 04:21:33;;;;;;;56.20;43.03;;;;;;;6.23;99.89;99945.22;5051686;28;20113;-80
2023/04/20 04:23:58;;;;;;;58.67;43.30;;;;;;;6.15;100.00;99924.72;5052015;28;20056;-80
2023/04/20 04:26:24;;;;;;;56.55;42.30;;;;;;;6.22;100.00;99917.66;5051697;28;20469;-80
2023/04/20 04:28:50;;;;;;;55.42;43.13;;;;;;;6.38;99.45;99933.66;5052003;28;20036;-81
2023/04/20 04:31:18;;;;;;;62.47;47.05;;;;;;;6.20;100.00;99901.34;5051894;28;20049;-81
2023/04/20 04:33:45;;;;;;;59.95;45.63;;;;;;;6.48;100.00;99941.13;5051674;28;20036;-81
2023/04/20 04:36:10;;;;;;;58.75;44.30;;;;;;;6.47;99.57;99939.44;5051603;28;20037;-81
2023/04/20 04:38:36;;;;;;;60.47;45.50;;;;;;;6.52;99.40;99921.19;5051746;28;20025;-81
2023/04/20 04:41:02;;;;;;;59.75;43.60;;;;;;;6.72;99.22;99954.34;5051944;28;20082;-80
2023/04/20 04:43:28;;;;;;;64.25;46.38;;;;;;;6.75;98.70;99944.75;5051565;28;20039;-81
2023/04/20 04:45:54;;;;;;;61.20;44.20;;;;;;;6.86;98.30;99960.00;5051799;28;20115;-81
2023/04/20 04:48:19;;;;;;;59.83;45.67;;;;;;;6.95;98.28;99954.59;5051592;28;20109;-81
2023/04/20 04:50:45;;;;;;;62.40;45.50;;;;;;;7.08;97.96;99959.41;5051370;28;20036;-81
2023/04/20 04:53:10;;;;;;;58.70;43.92;;;;;;;7.11;97.56;99956.75;5051863;28;20025;-80
2023/04/20 04:55:36;;;;;;;56.95;42.65;;;;;;;7.00;97.25;99965.69;5051610;28;20033;-81
2023/04/20 04:58:02;;;;;;;58.92;45.58;;;;;;;6.96;97.67;99963.22;5051773;28;20088;-81
2023/04/20 05:00:28;;;;;;;62.30;44.30;;;;;;;6.93;98.05;99978.81;5051441;28;20021;-80
2023/04/20 05:02:54;;;;;;;56.58;44.97;;;;;;;6.90;97.99;99974.56;5051599;28;20083;-81
2023/04/20 05:05:20;;;;;;;58.50;43.65;;;;;;;6.64;98.59;99951.09;5051525;28;20025;-81
2023/04/20 05:07:46;;;;;;;58.13;44.00;;;;;;;6.70;99.37;99945.75;5051399;28;20514;-81
2023/04/20 05:10:11;;;;;;;61.08;43.28;;;;;;;6.72;99.60;99962.09;5051693;28;20017;-81
2023/04/20 05:12:38;;;;;;;59.47;44.78;;;;;;;6.68;99.66;99957.91;5051438;28;20457;-81
2023/04/20 05:15:05;;;;;;;61.67;45.83;;;;;;;6.72;100.00;99954.34;5051619;28;20025;-80
2023/04/20 05:17:30;;;;;;;63.25;46.30;;;;;;;6.91;100.00;99973.69;5051366;28;20055;-80
2023/04/20 05:19:56;;;;;;;63.55;45.90;;;;;;;6.83;99.77;99965.28;5051432;28;20021;-81
2023/04/20 05:22:21;;;;;;;72.97;49.70;;;;;;;6.91;100.00;99967.63;5051363;28;20107;-81
2023/04/20 05:24:46;;;;;;;72.38;48.35;;;;;;;6.61;100.00;99964.97;5051334;28;20107;-80
2023/04/20 05:27:12;;;;;;;72.10;48.72;;;;;;;6.79;100.00;99968.00;5051772;28;20056;-80
2023/04/20 05:29:37;;;;;;;73.63;48.97;;;;;;;6.71;100.00;99966.44;5049801;28;20025;-81
2023/04/20 05:32:03;;;;;;;87.63;58.55;;;;;;;6.84;100.00;99951.44;5054850;28;20094;-81
2023/04/20 05:34:28;;;;;;;81.35;55.38;;;;;;;7.04;100.00;99968.16;5054753;28;20106;-81
2023/04/20 05:36:55;;;;;;;82.30;53.95;;;;;;;7.10;100.00;99958.50;5055109;28;20029;-81
2023/04/20 05:39:21;;;;;;;76.43;52.20;;;;;;;6.96;100.00;99958.03;5055028;28;20033;-81
2023/04/20 05:41:46;;;;;;;72.25;50.05;;;;;;;6.88;100.00;99945.28;5053445;28;20036;-81
2023/04/20 05:44:12;;;;;;;78.00;53.10;;;;;;;7.12;100.00;99984.34;5054904;28;20033;-81
2023/04/20 05:46:37;;;;;;;75.28;52.63;;;;;;;7.00;100.00;99988.97;5055059;28;20112;-81
2023/04/20 05:49:03;;;;;;;76.90;52.45;;;;;;;6.81;100.00;99989.50;5054598;28;20392;-81
2023/04/20 05:51:32;;;;;;;76.93;53.65;;;;;;;6.82;100.00;99986.84;5054913;28;20052;-81
2023/04/20 05:53:57;;;;;;;76.05;52.15;;;;;;;7.07;100.00;99997.41;5054848;28;20021;-81
2023/04/20 05:56:23;;;;;;;77.72;54.22;;;;;;;7.12;100.00;99986.94;5054734;28;20056;-81
2023/04/20 05:58:48;;;;;;;77.53;54.55;;;;;;;7.19;100.00;99993.66;5054459;28;20149;-81
2023/04/20 06:01:13;;;;;;;84.03;57.28;;;;;;;7.12;100.00;99963.63;5054573;28;20032;-81
2023/04/20 06:03:39;;;;;;;80.38;54.22;;;;;;;7.40;100.00;99990.47;5054145;28;20025;-81
2023/04/20 06:06:04;;;;;;;83.85;56.60;;;;;;;7.57;100.00;99989.16;5054434;28;20031;-80
2023/04/20 06:08:30;;;;;;;78.97;55.13;;;;;;;7.54;100.00;99992.66;5054349;28;20025;-81
2023/04/20 06:10:56;;;;;;;80.88;55.75;;;;;;;7.45;100.00;99979.97;5054470;28;20064;-81
2023/04/20 06:13:22;;;;;;;91.07;59.90;;;;;;;7.57;100.00;99973.59;5054382;28;20021;-81
2023/04/20 06:15:48;;;;;;;83.25;57.38;;;;;;;7.80;100.00;100006.63;5054035;28;20044;-81
2023/04/20 06:18:13;;;;;;;80.15;56.25;;;;;;;7.85;100.00;100010.78;5054191;28;20021;-81
2023/04/20 06:20:39;;;;;;;84.38;59.88;;;;;;;7.75;100.00;99986.88;5054223;28;20385;-81
2023/04/20 06:23:04;;;;;;;99.82;66.60;;;;;;;7.89;100.00;100007.22;5054327;28;20021;-81
2023/04/20 06:25:30;;;;;;;86.57;55.65;;;;;;;7.80;100.00;99997.13;5054342;28;20048;-81
2023/04/20 06:27:55;;;;;;;85.47;57.50;;;;;;;7.78;100.00;99992.84;5053939;28;20025;-81
2023/04/20 06:30:21;;;;;;;83.25;56.17;;;;;;;7.81;100.00;99983.25;5054045;28;20021;-81
2023/04/20 06:32:46;;;;;;;87.35;57.20;;;;;;;7.86;100.00;100007.28;5053408;28;20432;-81
2023/04/20 06:35:11;;;;;;;87.22;57.78;;;;;;;7.67;100.00;99988.84;5054127;28;20024;-81
2023/04/20 06:37:37;;;;;;;89.65;57.17;;;;;;;7.67;100.00;100003.56;5053479;28;20032;-81
2023/04/20 06:40:07;;;;;;;86.90;58.17;;;;;;;7.62;100.00;99974.31;5053922;28;20031;-81
2023/04/20 06:42:32;;;;;;;84.47;55.22;;;;;;;7.90;100.00;99997.69;5053254;28;20032;-81
2023/04/20 06:44:58;;;;;;;83.63;53.35;;;;;;;8.02;100.00;100010.28;5054114;28;20033;-81
2023/04/20 06:47:30;;;;;;;91.18;57.17;;;;;;;8.20;100.00;100008.84;5053644;28;20083;-81
2023/04/20 06:49:56;;;;;;;89.57;57.20;;;;;;;8.42;100.00;100019.44;5053488;28;20025;-81
2023/04/20 06:52:21;;;;;;;83.32;55.22;;;;;;;8.36;99.59;99997.09;5053808;28;20033;-81
2023/04/20 06:54:46;;;;;;;86.85;56.45;;;;;;;8.45;99.25;99996.84;5054040;28;20017;-81
2023/04/20 06:57:11;;;;;;;77.15;50.92;;;;;;;8.59;98.82;99998.13;5053565;28;20120;-81
2023/04/20 06:59:37;;;;;;;76.10;52.10;;;;;;;8.87;98.57;100027.47;5053154;28;20108;-81
2023/04/20 07:02:02;;;;;;;84.50;54.67;;;;;;;8.84;97.44;100000.75;5053330;28;20083;-81
2023/04/20 07:04:28;;;;;;;74.00;51.85;;;;;;;8.95;96.87;100024.63;5053540;28;20032;-81
2023/04/20 07:06:53;;;;;;;73.95;49.88;;;;;;;8.79;97.27;100026.03;5053223;28;20025;-81
2023/04/20 07:09:18;;;;;;;76.65;50.47;;;;;;;8.85;97.71;100003.31;5053330;28;20100;-81
2023/04/20 07:11:44;;;;;;;67.50;47.35;;;;;;;9.20;97.25;100019.44;5043795;28;20050;-81
2023/04/20 07:14:09;;;;;;;73.60;50.50;;;;;;;9.54;95.90;100015.63;5042950;28;20048;-81
2023/04/20 07:16:34;;;;;;;72.80;51.15;;;;;;;9.36;94.81;100009.34;5033275;28;20068;-81
2023/04/20 07:19:00;;;;;;;68.65;47.35;;;;;;;9.42;95.08;100022.13;5045320;28;20037;-81
2023/04/20 07:21:26;;;;;;;79.70;51.45;;;;;;;9.43;94.85;100024.66;5053095;28;20051;-81
2023/04/20 07:23:51;;;;;;;69.15;48.72;;;;;;;9.43;94.96;100029.00;5052901;28;20021;-81
2023/04/20 07:26:16;;;;;;;70.97;48.70;;;;;;;9.46;95.15;100026.31;5052916;28;20036;-81
2023/04/20 07:28:42;;;;;;;65.13;47.65;;;;;;;9.38;95.36;100028.31;5052629;28;20068;-81
2023/04/20 07:31:07;;;;;;;71.28;50.22;;;;;;;9.55;95.23;100035.53;5052429;28;20040;-81
2023/04/20 07:33:34;;;;;;;76.32;51.60;;;;;;;9.59;94.80;100026.72;5053107;28;20100;-81
2023/04/20 07:36:00;;;;;;;72.53;50.53;;;;;;;9.42;94.49;100015.16;5052362;28;20056;-81
2023/04/20 07:38:25;;;;;;;74.90;50.08;;;;;;;9.41;94.81;100018.69;5052569;28;20055;-81
2023/04/20 07:40:51;;;;;;;74.80;51.55;;;;;;;9.60;94.65;100012.78;5052306;28;20033;-81
2023/04/20 07:43:16;;;;;;;73.85;50.20;;;;;;;9.36;94.46;99975.56;5052623;28;20461;-81
2023/04/20 07:45:41;;;;;;;67.57;47.22;;;;;;;9.83;94.23;100037.97;5052663;28;20044;-81
2023/04/20 07:48:08;;;;;;;65.90;47.17;;;;;;;10.07;93.45;100038.78;5052955;28;20024;-81
2023/04/20 07:50:34;;;;;;;65.28;47.00;;;;;;;10.04;92.85;100011.13;5052647;28;20029;-81
2023/04/20 07:53:00;;;;;;;76.68;51.40;;;;;;;10.02;92.58;100044.16;5052474;28;20025;-81
2023/04/20 07:55:25;;;;;;;71.50;48.65;;;;;;;9.86;92.69;100025.69;5051734;28;20033;-81
2023/04/20 07:57:51;;;;;;;72.45;50.25;;;;;;;9.93;92.63;100040.16;5052016;28;20056;-81
2023/04/20 08:00:17;;;;;;;73.85;51.28;;;;;;;9.76;92.89;100011.31;5052256;28;20033;-81
2023/04/20 08:02:42;;;;;;;78.10;52.17;;;;;;;9.74;93.86;100011.41;5052231;28;20028;-81
2023/04/20 08:05:11;;;;;;;64.95;48.58;;;;;;;9.91;93.60;100044.59;5052378;28;20029;-81
2023/04/20 08:07:36;;;;;;;73.20;50.90;;;;;;;9.87;93.34;100034.34;5052259;28;20028;-81
2023/04/20 08:10:02;;;;;;;69.30;49.47;;;;;;;10.04;93.25;100038.91;5051909;28;20029;-81
2023/04/20 08:12:27;;;;;;;69.93;47.25;;;;;;;9.79;93.28;100033.78;5052134;28;20386;-81
2023/04/20 08:14:53;;;;;;;73.32;50.75;;;;;;;9.97;93.72;100046.09;5051822;28;20024;-81
2023/04/20 08:17:18;;;;;;;69.88;50.20;;;;;;;9.99;93.71;100049.50;5052278;28;20056;-81
2023/04/20 08:19:43;;;;;;;66.25;48.00;;;;;;;10.05;94.18;100057.06;5051756;28;20040;-81
2023/04/20 08:22:11;;;;;;;78.68;52.90;;;;;;;9.92;94.31;100040.22;5040161;28;20029;-81
2023/04/20 08:24:36;;;;;;;70.18;50.20;;;;;;;9.90;94.09;100016.00;5031452;28;20029;-81
2023/04/20 08:27:02;;;;;;;76.45;51.60;;;;;;;9.92;93.90;100020.25;5031746;28;20184;-81
2023/04/20 08:29:27;;;;;;;77.43;53.08;;;;;;;9.66;94.58;100052.44;5031948;28;20108;-81
2023/04/20 08:31:52;;;;;;;81.13;55.95;;;;;;;9.57;95.34;100000.78;5033906;28;20057;-81
2023/04/20 08:34:18;;;;;;;67.90;49.60;;;;;;;10.27;94.28;100022.44;5039628;28;20025;-81
2023/04/20 08:36:43;;;;;;;61.90;44.45;;;;;;;10.56;91.81;100042.94;5045311;28;20033;-81
2023/04/20 08:39:12;;;;;;;65.72;47.53;;;;;;;10.71;90.84;100037.13;5047974;28;20036;-81
2023/04/20 08:41:38;;;;;;;77.57;52.78;;;;;;;10.64;91.16;100016.59;5039549;28;20123;-81
2023/04/20 08:44:03;;;;;;;81.68;54.33;;;;;;;10.67;91.06;100017.31;5035699;28;20484;-81
2023/04/20 08:46:29;;;;;;;78.13;53.80;;;;;;;10.70;90.60;100032.84;5031906;28;20029;-81
2023/04/20 08:48:55;;;;;;;74.90;53.33;;;;;;;11.02;90.36;100029.78;5031661;28;20083;-81
2023/04/20 08:51:22;;;;;;;68.30;47.65;;;;;;;11.20;89.48;100045.47;5036280;28;20029;-81
2023/04/20 08:53:47;;;;;;;64.25;45.90;;;;;;;11.34;88.61;100039.69;5041682;28;20025;-81
2023/04/20 08:56:12;;;;;;;63.40;43.75;;;;;;;11.04;88.23;100022.75;5036420;28;20393;-81
2023/04/20 08:58:41;;;;;;;64.57;41.95;;;;;;;10.91;88.54;100025.88;5031701;28;20025;-81
2023/04/20 09:01:07;;;;;;;64.97;44.88;;;;;;;10.85;89.99;100040.91;5031913;28;20032;-81
2023/04/20 09:03:40;;;;;;;65.13;47.25;;;;;;;10.89;89.81;100025.09;5031809;28;20477;-81
2023/04/20 09:06:15;;;;;;;66.55;46.65;;;;;;;11.27;88.93;100045.22;5033929;28;20025;-81
2023/04/20 09:08:42;;;;;;;64.97;42.70;;;;;;;11.03;88.67;100027.09;5035376;28;20163;-81
2023/04/20 09:11:23;;;;;;;59.40;41.33;;;;;;;10.84;89.47;100049.66;5035542;28;20022;-81
2023/04/20 09:14:09;;;;;;;63.33;44.60;;;;;;;10.74;89.88;100046.56;5040273;28;20117;-81
2023/04/20 09:16:38;;;;;;;58.33;43.10;;;;;;;10.83;90.00;100053.16;5042663;28;20104;-81
2023/04/20 09:19:04;;;;;;;63.05;44.28;;;;;;;10.92;89.95;100035.41;5035064;28;20040;-81
2023/04/20 09:21:31;;;;;;;62.33;44.53;;;;;;;11.33;88.89;100044.97;5035155;28;20034;-81
2023/04/20 09:24:07;;;;;;;59.55;41.83;;;;;;;11.63;86.89;100043.63;5035345;28;20485;-81
2023/04/20 09:26:33;;;;;;;65.80;45.97;;;;;;;11.94;85.36;100045.72;5035359;28;20065;-81
2023/04/20 09:29:00;;;;;;;52.78;39.13;;;;;;;12.26;84.66;100050.34;5035088;28;20026;-81
2023/04/20 09:31:25;;;;;;;58.95;40.20;;;;;;;12.24;83.57;100037.38;5035276;28;20363;-82
2023/04/20 09:34:02;;;;;;;54.25;43.10;;;;;;;12.27;83.62;100008.50;5034906;28;20040;-81
2023/04/20 09:36:36;;;;;;;56.75;41.85;;;;;;;12.88;82.99;100055.16;5035257;28;20038;-82
2023/04/20 09:39:13;;;;;;;59.05;45.17;;;;;;;12.87;83.13;100031.72;5034854;28;20547;-82
2023/04/20 09:41:39;;;;;;;56.13;41.65;;;;;;;13.15;81.30;100037.25;5033914;28;20579;-82
2023/04/20 09:44:06;;;;;;;53.45;38.38;;;;;;;13.20;81.05;100037.00;5034742;28;20096;-82
2023/04/20 09:46:33;;;;;;;54.00;41.78;;;;;;;13.27;79.74;100025.31;5035438;28;20033;-82
2023/04/20 09:49:02;;;;;;;53.55;42.25;;;;;;;13.16;79.53;100045.94;5034806;28;20107;-81
2023/04/20 09:51:28;;;;;;;54.15;38.30;;;;;;;13.29;79.87;100036.56;5048616;28;20523;-81
2023/04/20 09:53:56;;;;;;;53.65;41.08;;;;;;;13.36;79.46;100024.03;5053423;28;20044;-82
2023/04/20 09:56:21;;;;;;;55.60;42.40;;;;;;;13.60;78.52;100043.66;5054652;28;20108;-81
2023/04/20 09:58:46;;;;;;;53.25;40.97;;;;;;;13.67;78.13;100012.78;5054324;28;20104;-82
2023/04/20 10:01:12;;;;;;;52.00;40.13;;;;;;;14.03;78.84;100024.78;5054121;28;20029;-82
2023/04/20 10:03:41;;;;;;;50.75;38.75;;;;;;;14.20;78.73;100004.63;5054560;28;20028;-82
2023/04/20 10:06:17;;;;;;;51.42;38.10;;;;;;;14.44;78.49;100006.75;5054263;28;20033;-82
2023/04/20 10:08:42;;;;;;;48.95;35.35;;;;;;;14.66;76.75;100025.63;5054519;28;20029;-82
2023/04/20 10:11:08;;;;;;;43.78;34.15;;;;;;;14.16;76.00;100013.56;5054433;28;20540;-82
2023/04/20 10:13:34;;;;;;;47.92;33.78;;;;;;;14.03;75.91;100035.25;5054693;28;20029;-82
2023/04/20 10:15:59;;;;;;;49.60;34.45;;;;;;;13.64;78.04;100012.94;5054339;28;20025;-82
2023/04/20 10:18:25;;;;;;;44.35;34.63;;;;;;;13.59;77.52;100014.94;5053566;28;20025;-82
2023/04/20 10:21:02;;;;;;;46.70;37.42;;;;;;;13.64;77.93;100016.38;5054067;28;20020;-82
2023/04/20 10:23:28;;;;;;;45.85;32.72;;;;;;;13.72;78.02;99995.03;5054180;28;20025;-82
2023/04/20 10:25:56;;;;;;;45.42;31.17;;;;;;;13.61;77.31;100015.69;5053898;28;20480;-82
2023/04/20 10:28:21;;;;;;;43.40;31.88;;;;;;;13.42;78.11;100024.53;5053977;28;20021;-82
2023/04/20 10:30:52;;;;;;;48.13;36.05;;;;;;;13.38;78.71;100007.31;5053526;28;20032;-82
2023/04/20 10:33:17;;;;;;;51.27;35.90;;;;;;;13.30;79.59;99972.00;5054524;28;20021;-82
2023/04/20 10:35:48;;;;;;;53.78;40.35;;;;;;;13.34;80.34;99981.38;5053903;28;20029;-82
2023/04/20 10:38:14;;;;;;;61.83;43.65;;;;;;;13.35;80.76;100006.63;5053870;28;20025;-82
2023/04/20 10:40:40;;;;;;;57.03;40.17;;;;;;;13.53;80.51;100021.38;5053845;28;20389;-82
2023/04/20 10:43:20;;;;;;;52.22;39.88;;;;;;;13.43;80.11;100010.53;5053560;28;20032;-82
2023/04/20 10:45:47;;;;;;;60.50;41.92;;;;;;;13.55;81.14;100016.88;5053654;28;20032;-82
2023/04/20 10:48:12;;;;;;;55.35;41.38;;;;;;;13.11;81.31;99980.78;5053732;28;20607;-82
2023/04/20 10:50:38;;;;;;;53.22;40.80;;;;;;;13.34;81.62;99999.69;5053757;28;20056;-82
2023/04/20 10:53:04;;;;;;;55.78;42.08;;;;;;;13.55;81.21;99984.63;5053664;28;20446;-82
2023/04/20 10:55:30;;;;;;;53.78;39.35;;;;;;;13.50;80.26;99990.13;5053547;28;20091;-82
2023/04/20 10:57:56;;;;;;;57.10;41.55;;;;;;;13.53;79.95;99989.13;5053749;28;20472;-82
2023/04/20 11:00:23;;;;;;;44.65;32.75;;;;;;;13.70;79.46;100002.16;5053746;28;20060;-82
2023/04/20 11:02:53;;;;;;;42.25;29.73;;;;;;;13.82;78.60;99995.38;5053275;28;20031;-82
2023/04/20 11:05:21;;;;;;;48.40;35.00;;;;;;;13.72;78.25;99995.03;5053393;28;20025;-82
2023/04/20 11:07:51;;;;;;;38.35;28.65;;;;;;;13.71;76.79;99995.97;5053287;28;20083;-82
2023/04/20 11:10:16;;;;;;;43.95;27.73;;;;;;;13.63;76.52;99988.53;5053444;28;20028;-82
2023/04/20 11:12:41;;;;;;;42.15;29.05;;;;;;;13.59;77.20;99994.00;5053390;28;20025;-82
2023/04/20 11:15:08;;;;;;;41.35;28.83;;;;;;;13.30;78.07;99974.63;5052886;28;20028;-82